createdAt,value
2019-02-04T00:02:21.897Z,9.20
2019-02-04T00:04:49.150Z,8.23
2019-02-04T00:07:16.686Z,8.60
2019-02-04T00:09:43.929Z,9.40
2019-02-04T00:12:11.463Z,9.90
2019-02-04T00:14:38.810Z,8.87
2019-02-04T00:17:06.057Z,9.67
2019-02-04T00:19:33.339Z,9.20
2019-02-04T00:22:00.589Z,9.27
2019-02-04T00:24:28.047Z,9.70
2019-02-04T00:26:55.299Z,9.90
2019-02-04T00:29:22.582Z,10.03
2019-02-04T00:31:49.838Z,8.80
2019-02-04T00:34:17.114Z,9.70
2019-02-04T00:36:44.359Z,9.50
2019-02-04T00:39:11.659Z,9.70
2019-02-04T00:41:39.444Z,9.57
2019-02-04T00:44:06.942Z,10.43
2019-02-04T00:46:34.321Z,10.07
2019-02-04T00:49:01.830Z,10.00
2019-02-04T00:51:29.106Z,9.03
2019-02-04T00:53:56.359Z,9.73
2019-02-04T00:56:23.634Z,9.37
2019-02-04T00:58:51.451Z,9.60
2019-02-04T01:01:18.703Z,10.80
2019-02-04T01:03:46.269Z,9.90
2019-02-04T01:06:13.554Z,9.03
2019-02-04T01:08:40.797Z,9.50
2019-02-04T01:11:08.235Z,9.20
2019-02-04T01:13:35.509Z,9.87
2019-02-04T01:16:03.078Z,9.43
2019-02-04T01:18:30.574Z,9.93
2019-02-04T01:20:57.831Z,10.10
2019-02-04T01:23:25.102Z,9.93
2019-02-04T01:25:52.392Z,9.87
2019-02-04T01:28:19.899Z,9.93
2019-02-04T01:30:47.170Z,9.60
2019-02-04T01:33:14.460Z,9.53
2019-02-04T01:35:41.698Z,9.47
2019-02-04T01:38:08.977Z,9.73
2019-02-04T01:40:36.217Z,9.07
2019-02-04T01:43:03.509Z,10.10
2019-02-04T01:45:30.778Z,9.67
2019-02-04T01:47:58.035Z,10.50
2019-02-04T01:50:25.304Z,9.50
2019-02-04T01:52:52.658Z,10.17
2019-02-04T01:55:19.931Z,9.17
2019-02-04T01:57:50.930Z,9.70
2019-02-04T02:00:22.419Z,9.57
2019-02-04T02:02:49.733Z,9.70
2019-02-04T02:05:17.283Z,10.70
2019-02-04T02:07:44.525Z,8.60
2019-02-04T02:10:16.302Z,9.30
2019-02-04T02:12:43.858Z,8.43
2019-02-04T02:15:11.170Z,9.17
2019-02-04T02:17:38.671Z,9.80
2019-02-04T02:20:07.759Z,9.00
2019-02-04T02:22:35.039Z,8.17
2019-02-04T02:25:02.686Z,9.67
2019-02-04T02:27:29.966Z,9.23
2019-02-04T02:29:57.473Z,8.60
2019-02-04T02:32:24.723Z,8.47
2019-02-04T02:34:52.080Z,8.77
2019-02-04T02:37:19.322Z,7.83
2019-02-04T02:39:46.597Z,7.33
2019-02-04T02:42:13.877Z,7.83
2019-02-04T02:44:41.161Z,8.63
2019-02-04T02:47:08.474Z,7.90
2019-02-04T02:49:35.753Z,8.33
2019-02-04T02:52:03.023Z,9.30
2019-02-04T02:54:30.558Z,8.00
2019-02-04T02:56:57.904Z,9.33
2019-02-04T02:59:25.152Z,9.17
2019-02-04T03:01:52.430Z,8.27
2019-02-04T03:04:19.682Z,8.50
2019-02-04T03:06:46.930Z,7.60
2019-02-04T03:09:14.219Z,8.93
2019-02-04T03:11:41.498Z,7.80
2019-02-04T03:14:08.746Z,8.47
2019-02-04T03:16:36.018Z,7.77
2019-02-04T03:19:03.274Z,7.97
2019-02-04T03:21:30.595Z,8.60
2019-02-04T03:24:00.640Z,7.03
2019-02-04T03:26:26.859Z,7.40
2019-02-04T03:28:54.439Z,7.93
2019-02-04T03:31:21.711Z,7.63
2019-02-04T03:33:49.034Z,7.50
2019-02-04T03:36:16.310Z,8.17
2019-02-04T03:38:43.561Z,8.03
2019-02-04T03:41:10.838Z,8.00
2019-02-04T03:43:38.164Z,7.80
2019-02-04T03:46:05.573Z,8.60
2019-02-04T03:48:32.855Z,6.80
2019-02-04T03:51:00.357Z,6.90
2019-02-04T03:53:27.634Z,7.90
2019-02-04T03:55:54.877Z,7.67
2019-02-04T03:58:22.147Z,8.60
2019-02-04T04:00:49.843Z,8.90
2019-02-04T04:03:17.187Z,6.50
2019-02-04T04:05:44.434Z,7.80
2019-02-04T04:08:11.718Z,7.50
2019-02-04T04:10:38.962Z,7.63
2019-02-04T04:13:06.237Z,8.27
2019-02-04T04:15:33.814Z,7.70
2019-02-04T04:18:01.349Z,8.00
2019-02-04T04:20:28.707Z,7.63
2019-02-04T04:22:56.014Z,7.70
2019-02-04T04:25:23.553Z,7.63
2019-02-04T04:27:50.961Z,8.50
2019-02-04T04:30:22.674Z,8.60
2019-02-04T04:32:50.314Z,8.90
2019-02-04T04:35:17.699Z,7.70
2019-02-04T04:37:45.074Z,8.10
2019-02-04T04:40:13.508Z,8.20
2019-02-04T04:42:40.780Z,9.90
2019-02-04T04:45:09.825Z,8.27
2019-02-04T04:47:37.402Z,8.40
2019-02-04T04:50:06.312Z,9.00
2019-02-04T04:52:33.564Z,7.97
2019-02-04T04:55:00.852Z,8.63
2019-02-04T04:57:28.375Z,8.57
2019-02-04T04:59:55.658Z,8.27
2019-02-04T05:02:22.935Z,8.43
2019-02-04T05:04:50.209Z,7.67
2019-02-04T05:07:17.766Z,8.53
2019-02-04T05:09:45.026Z,8.50
2019-02-04T05:12:12.285Z,8.50
2019-02-04T05:14:39.558Z,8.20
2019-02-04T05:17:06.839Z,9.63
2019-02-04T05:19:34.090Z,9.47
2019-02-04T05:22:01.373Z,7.23
2019-02-04T05:24:28.895Z,9.03
2019-02-04T05:26:56.368Z,8.50
2019-02-04T05:29:23.889Z,8.10
2019-02-04T05:31:51.212Z,8.80
2019-02-04T05:34:18.490Z,8.40
2019-02-04T05:36:46.028Z,9.20
2019-02-04T05:39:13.273Z,8.10
2019-02-04T05:41:42.948Z,8.60
2019-02-04T05:44:09.623Z,9.03
2019-02-04T05:46:36.921Z,7.40
2019-02-04T05:49:04.238Z,7.03
2019-02-04T05:51:31.513Z,8.50
2019-02-04T05:53:58.787Z,7.87
2019-02-04T05:56:26.031Z,7.13
2019-02-04T05:58:53.440Z,8.03
2019-02-04T06:01:20.697Z,7.30
2019-02-04T06:03:47.969Z,6.27
2019-02-04T06:06:15.516Z,8.10
2019-02-04T06:08:43.047Z,7.23
2019-02-04T06:11:10.646Z,6.90
2019-02-04T06:13:38.114Z,7.30
2019-02-04T06:16:05.641Z,7.57
2019-02-04T06:18:32.966Z,7.87
2019-02-04T06:21:00.516Z,8.37
2019-02-04T06:23:27.759Z,6.83
2019-02-04T06:25:55.109Z,7.30
2019-02-04T06:28:22.683Z,6.57
2019-02-04T06:30:50.560Z,6.80
2019-02-04T06:33:17.833Z,6.80
2019-02-04T06:35:45.406Z,7.00
2019-02-04T06:38:12.697Z,7.50
2019-02-04T06:40:40.277Z,7.00
2019-02-04T06:43:07.519Z,6.83
2019-02-04T06:45:34.794Z,6.70
2019-02-04T06:48:02.418Z,6.60
2019-02-04T06:50:29.693Z,6.40
2019-02-04T06:52:57.202Z,6.57
2019-02-04T06:55:28.391Z,6.83
2019-02-04T06:57:55.634Z,5.50
2019-02-04T07:00:23.255Z,5.90
2019-02-04T07:02:50.814Z,5.70
2019-02-04T07:05:18.412Z,6.70
2019-02-04T07:07:45.759Z,6.10
2019-02-04T07:10:14.570Z,6.30
2019-02-04T07:12:41.813Z,5.80
2019-02-04T07:15:09.959Z,6.90
2019-02-04T07:17:37.197Z,6.27
2019-02-04T07:20:06.009Z,5.50
2019-02-04T07:22:33.458Z,6.33
2019-02-04T07:25:01.258Z,5.87
2019-02-04T07:27:28.505Z,5.90
2019-02-04T07:29:55.770Z,6.03
2019-02-04T07:32:23.050Z,6.20
2019-02-04T07:34:50.299Z,6.50
2019-02-04T07:37:17.829Z,6.63
2019-02-04T07:39:45.472Z,8.43
2019-02-04T07:42:12.725Z,6.53
2019-02-04T07:44:40.082Z,6.50
2019-02-04T07:47:07.317Z,6.43
2019-02-04T07:49:35.583Z,7.70
2019-02-04T07:52:02.915Z,6.83
2019-02-04T07:54:30.271Z,6.37
2019-02-04T07:56:57.813Z,6.90
2019-02-04T07:59:25.096Z,7.20
2019-02-04T08:01:52.361Z,7.80
2019-02-04T08:04:19.616Z,6.47
2019-02-04T08:06:46.890Z,7.27
2019-02-04T08:09:14.174Z,6.50
2019-02-04T08:11:41.455Z,6.27
2019-02-04T08:14:08.964Z,6.87
2019-02-04T08:16:36.238Z,8.30
2019-02-04T08:19:03.830Z,6.90
2019-02-04T08:21:31.081Z,7.53
2019-02-04T08:23:58.323Z,7.73
2019-02-04T08:26:25.849Z,6.50
2019-02-04T08:28:53.117Z,7.40
2019-02-04T08:31:20.769Z,7.33
2019-02-04T08:33:48.014Z,7.97
2019-02-04T08:36:15.293Z,8.90
2019-02-04T08:38:42.569Z,7.53
2019-02-04T08:41:09.819Z,8.70
2019-02-04T08:43:37.118Z,7.90
2019-02-04T08:46:04.451Z,8.67
2019-02-04T08:48:31.765Z,7.53
2019-02-04T08:50:59.221Z,7.73
2019-02-04T08:53:26.465Z,8.40
2019-02-04T08:55:53.744Z,8.77
2019-02-04T08:58:21.302Z,8.17
2019-02-04T09:00:48.577Z,8.13
2019-02-04T09:03:15.835Z,8.73
2019-02-04T09:05:43.183Z,8.20
2019-02-04T09:08:10.542Z,8.00
2019-02-04T09:10:37.854Z,8.93
2019-02-04T09:13:05.108Z,9.60
2019-02-04T09:15:32.460Z,8.30
2019-02-04T09:17:59.805Z,8.50
2019-02-04T09:20:27.054Z,8.10
2019-02-04T09:22:54.603Z,8.57
2019-02-04T09:25:23.644Z,8.47
2019-02-04T09:27:51.302Z,9.10
2019-02-04T09:30:19.509Z,9.20
2019-02-04T09:32:46.902Z,8.43
2019-02-04T09:35:15.253Z,10.08
2019-02-04T09:37:42.765Z,8.60
2019-02-04T09:40:11.574Z,9.57
2019-02-04T09:42:38.901Z,9.60
2019-02-04T09:45:08.089Z,8.40
2019-02-04T09:47:35.370Z,8.33
2019-02-04T09:50:02.617Z,9.00
2019-02-04T09:52:29.890Z,8.70
2019-02-04T09:54:57.157Z,8.80
2019-02-04T09:57:24.434Z,8.53
2019-02-04T09:59:51.761Z,7.50
2019-02-04T10:02:19.685Z,7.47
2019-02-04T10:04:46.934Z,7.90
2019-02-04T10:07:14.474Z,6.43
2019-02-04T10:09:41.974Z,6.53
2019-02-04T10:12:09.465Z,6.40
2019-02-04T10:14:36.994Z,6.77
2019-02-04T10:17:04.287Z,7.60
2019-02-04T10:19:31.815Z,6.40
2019-02-04T10:21:59.090Z,5.83
2019-02-04T10:24:26.441Z,6.43
2019-02-04T10:26:53.746Z,6.70
2019-02-04T10:29:21.102Z,6.70
2019-02-04T10:31:48.684Z,6.13
2019-02-04T10:34:15.985Z,7.77
2019-02-04T10:36:43.334Z,6.23
2019-02-04T10:39:10.708Z,5.90
2019-02-04T10:41:38.043Z,5.93
2019-02-04T10:44:05.400Z,6.43
2019-02-04T10:46:32.775Z,6.30
2019-02-04T10:49:00.032Z,6.30
2019-02-04T10:51:27.378Z,6.20
2019-02-04T10:53:54.860Z,5.07
2019-02-04T10:56:22.138Z,5.53
2019-02-04T10:58:49.451Z,6.50
2019-02-04T11:01:16.746Z,7.00
2019-02-04T11:03:44.090Z,6.10
2019-02-04T11:06:11.517Z,7.40
2019-02-04T11:08:38.829Z,6.57
2019-02-04T11:11:06.449Z,7.20
2019-02-04T11:13:33.799Z,6.67
2019-02-04T11:16:01.128Z,7.03
2019-02-04T11:18:28.506Z,7.13
2019-02-04T11:20:58.053Z,6.60
2019-02-04T11:23:25.061Z,7.13
2019-02-04T11:25:52.331Z,7.10
2019-02-04T11:28:19.692Z,6.63
2019-02-04T11:30:48.495Z,7.47
2019-02-04T11:33:15.838Z,6.90
2019-02-04T11:35:43.342Z,7.00
2019-02-04T11:38:10.903Z,7.20
2019-02-04T11:40:40.062Z,7.53
2019-02-04T11:43:08.159Z,7.77
2019-02-04T11:45:35.492Z,7.50
2019-02-04T11:48:03.500Z,7.27
2019-02-04T11:50:30.823Z,7.97
2019-02-04T11:52:58.180Z,7.03
2019-02-04T11:55:25.830Z,7.83
2019-02-04T11:57:53.436Z,7.40
2019-02-04T12:00:22.530Z,7.97
2019-02-04T12:02:49.947Z,8.30
2019-02-04T12:05:18.190Z,7.40
2019-02-04T12:07:45.473Z,7.33
2019-02-04T12:10:14.257Z,6.83
2019-02-04T12:12:41.788Z,8.23
2019-02-04T12:15:10.570Z,7.80
2019-02-04T12:17:38.369Z,8.73
2019-02-04T12:20:07.174Z,8.60
2019-02-04T12:22:34.705Z,7.57
2019-02-04T12:25:02.038Z,8.47
2019-02-04T12:27:32.159Z,9.07
2019-02-04T12:29:58.666Z,9.47
2019-02-04T12:32:26.521Z,8.60
2019-02-04T12:34:53.934Z,8.87
2019-02-04T12:37:21.506Z,8.33
2019-02-04T12:39:48.814Z,9.47
2019-02-04T12:42:16.772Z,11.13
2019-02-04T12:44:44.051Z,9.47
2019-02-04T12:47:12.245Z,10.07
2019-02-04T12:49:40.027Z,10.70
2019-02-04T12:52:07.623Z,11.70
2019-02-04T12:54:34.874Z,11.93
2019-02-04T12:57:02.160Z,13.07
2019-02-04T12:59:29.493Z,11.20
2019-02-04T13:01:56.774Z,10.80
2019-02-04T13:04:24.034Z,12.17
2019-02-04T13:06:51.286Z,12.10
2019-02-04T13:09:18.563Z,12.10
2019-02-04T13:11:45.809Z,12.73
2019-02-04T13:14:13.433Z,13.63
2019-02-04T13:16:40.693Z,12.63
2019-02-04T13:19:08.214Z,12.20
2019-02-04T13:21:45.082Z,12.20
2019-02-04T13:24:05.138Z,10.67
2019-02-04T13:26:32.625Z,9.97
2019-02-04T13:29:00.167Z,11.30
2019-02-04T13:31:27.418Z,9.50
2019-02-04T13:33:54.974Z,9.67
2019-02-04T13:36:22.479Z,9.90
2019-02-04T13:38:49.788Z,10.60
2019-02-04T13:41:17.378Z,9.13
2019-02-04T13:43:44.889Z,9.63
2019-02-04T13:46:12.439Z,8.90
2019-02-04T13:48:39.777Z,9.60
2019-02-04T13:51:07.130Z,9.23
2019-02-04T13:53:34.376Z,8.60
2019-02-04T13:56:01.721Z,8.03
2019-02-04T13:58:29.409Z,8.10
2019-02-04T14:00:56.681Z,7.20
2019-02-04T14:03:23.927Z,7.53
2019-02-04T14:05:51.197Z,7.33
2019-02-04T14:08:18.742Z,8.40
2019-02-04T14:10:46.347Z,8.77
2019-02-04T14:13:13.651Z,7.63
2019-02-04T14:15:41.442Z,6.90
2019-02-04T14:18:08.779Z,7.00
2019-02-04T14:20:36.093Z,6.50
2019-02-04T14:23:03.442Z,6.57
2019-02-04T14:25:30.756Z,6.70
2019-02-04T14:27:58.029Z,6.83
2019-02-04T14:30:26.817Z,7.13
2019-02-04T14:32:54.061Z,6.13
2019-02-04T14:35:21.350Z,7.10
2019-02-04T14:37:48.784Z,5.90
2019-02-04T14:40:18.840Z,6.97
2019-02-04T14:42:46.730Z,6.43
2019-02-04T14:45:21.670Z,6.13
2019-02-04T14:47:50.496Z,6.83
2019-02-04T14:50:21.009Z,6.73
2019-02-04T14:52:50.643Z,6.60
2019-02-04T14:55:35.653Z,6.27
2019-02-04T14:58:07.149Z,5.50
2019-02-04T15:00:41.602Z,5.40
2019-02-04T15:03:19.652Z,4.93
2019-02-04T15:05:49.536Z,5.90
2019-02-04T15:08:33.225Z,5.30
2019-02-04T15:11:01.360Z,5.47
2019-02-04T15:13:39.004Z,5.27
2019-02-04T15:16:24.655Z,5.23
2019-02-04T15:18:56.468Z,5.10
2019-02-04T15:21:25.267Z,5.60
2019-02-04T15:24:08.860Z,5.63
2019-02-04T15:26:36.314Z,5.20
2019-02-04T15:29:07.826Z,5.83
2019-02-04T15:31:36.626Z,5.17
2019-02-04T15:34:11.490Z,5.17
2019-02-04T15:36:43.251Z,5.23
2019-02-04T15:39:12.281Z,6.47
2019-02-04T15:41:47.294Z,6.50
2019-02-04T15:44:24.796Z,6.00
2019-02-04T15:46:53.575Z,5.07
2019-02-04T15:49:22.378Z,5.90
2019-02-04T15:51:51.183Z,5.70
2019-02-04T15:54:18.452Z,6.27
2019-02-04T15:56:45.701Z,5.60
2019-02-04T15:59:12.970Z,5.33
2019-02-04T16:01:40.211Z,5.67
2019-02-04T16:04:27.083Z,5.57
2019-02-04T16:06:54.353Z,5.97
2019-02-04T16:09:21.617Z,6.50
2019-02-04T16:11:48.886Z,6.40
2019-02-04T16:14:16.163Z,6.07
2019-02-04T16:16:43.435Z,5.60
2019-02-04T16:19:11.112Z,5.50
2019-02-04T16:21:38.376Z,6.50
2019-02-04T16:24:05.657Z,5.80
2019-02-04T16:26:32.897Z,5.80
2019-02-04T16:29:00.142Z,6.63
2019-02-04T16:31:27.418Z,5.67
2019-02-04T16:33:54.685Z,5.90
2019-02-04T16:36:22.234Z,5.73
2019-02-04T16:38:49.515Z,6.27
2019-02-04T16:41:16.754Z,6.27
2019-02-04T16:43:44.024Z,6.10
2019-02-04T16:46:11.275Z,6.07
2019-02-04T16:48:38.895Z,5.70
2019-02-04T16:51:11.702Z,5.40
2019-02-04T16:53:35.133Z,6.90
2019-02-04T16:56:02.375Z,5.90
2019-02-04T16:58:29.623Z,5.67
2019-02-04T17:00:56.897Z,5.30
2019-02-04T17:03:24.133Z,6.73
2019-02-04T17:05:51.410Z,6.20
2019-02-04T17:08:18.849Z,6.43
2019-02-04T17:10:46.374Z,6.40
2019-02-04T17:13:13.655Z,6.40
2019-02-04T17:15:40.974Z,6.97
2019-02-04T17:18:08.241Z,6.33
2019-02-04T17:20:35.486Z,7.90
2019-02-04T17:23:02.757Z,6.67
2019-02-04T17:25:30.282Z,6.80
2019-02-04T17:27:57.642Z,7.93
2019-02-04T17:30:25.410Z,8.17
2019-02-04T17:32:53.047Z,6.97
2019-02-04T17:35:20.430Z,6.70
2019-02-04T17:37:47.683Z,6.80
2019-02-04T17:40:16.758Z,6.70
2019-02-04T17:42:44.241Z,7.40
2019-02-04T17:45:12.962Z,7.67
2019-02-04T17:47:40.238Z,6.13
2019-02-04T17:50:09.056Z,7.57
2019-02-04T17:52:36.311Z,9.00
2019-02-04T17:55:05.723Z,10.40
2019-02-04T17:57:33.034Z,8.90
2019-02-04T18:00:00.732Z,9.20
2019-02-04T18:02:28.530Z,7.67
2019-02-04T18:04:56.561Z,7.60
2019-02-04T18:07:24.212Z,8.00
2019-02-04T18:09:53.206Z,7.33
2019-02-04T18:12:21.271Z,7.20
2019-02-04T18:14:48.711Z,8.17
2019-02-04T18:17:16.429Z,8.13
2019-02-04T18:19:43.704Z,7.93
2019-02-04T18:22:11.191Z,8.27
2019-02-04T18:24:38.707Z,8.20
2019-02-04T18:27:06.629Z,7.33
2019-02-04T18:29:34.191Z,7.30
2019-02-04T18:32:02.464Z,7.40
2019-02-04T18:34:29.818Z,7.50
2019-02-04T18:36:58.613Z,7.00
2019-02-04T18:39:26.095Z,7.30
2019-02-04T18:41:55.660Z,7.30
2019-02-04T18:44:23.171Z,7.00
2019-02-04T18:46:51.768Z,6.63
2019-02-04T18:49:19.452Z,6.27
2019-02-04T18:51:47.458Z,7.00
2019-02-04T18:54:15.086Z,7.60
2019-02-04T18:56:42.536Z,6.33
2019-02-04T18:59:10.633Z,8.03
2019-02-04T19:01:38.093Z,6.83
2019-02-04T19:04:05.343Z,6.60
2019-02-04T19:06:32.684Z,6.20
2019-02-04T19:09:00.121Z,7.50
2019-02-04T19:11:27.622Z,8.57
2019-02-04T19:13:54.953Z,9.87
2019-02-04T19:16:22.478Z,10.97
2019-02-04T19:18:49.749Z,7.20
2019-02-04T19:21:17.031Z,7.37
2019-02-04T19:23:45.171Z,7.80
2019-02-04T19:26:12.545Z,7.93
2019-02-04T19:28:39.823Z,9.00
2019-02-04T19:31:08.719Z,8.10
2019-02-04T19:33:36.065Z,8.03
2019-02-04T19:36:03.858Z,6.60
2019-02-04T19:38:31.126Z,6.97
2019-02-04T19:40:58.694Z,5.37
2019-02-04T19:43:26.190Z,5.80
2019-02-04T19:45:53.438Z,6.30
2019-02-04T19:48:20.715Z,5.90
2019-02-04T19:50:47.991Z,5.20
2019-02-04T19:53:15.262Z,4.83
2019-02-04T19:55:42.538Z,4.67
2019-02-04T19:58:10.191Z,5.40
2019-02-04T20:00:37.505Z,5.47
2019-02-04T20:03:05.544Z,4.67
2019-02-04T20:05:33.296Z,4.93
2019-02-04T20:08:00.605Z,4.50
2019-02-04T20:10:29.550Z,5.10
2019-02-04T20:12:56.964Z,6.10
2019-02-04T20:15:25.680Z,4.70
2019-02-04T20:17:52.991Z,5.60
2019-02-04T20:20:20.585Z,5.00
2019-02-04T20:22:47.834Z,4.57
2019-02-04T20:25:19.108Z,5.30
2019-02-04T20:27:46.382Z,4.73
2019-02-04T20:30:20.607Z,5.00
2019-02-04T20:32:48.105Z,5.40
2019-02-04T20:35:15.511Z,4.90
2019-02-04T20:37:42.777Z,4.80
2019-02-04T20:40:11.850Z,4.93
2019-02-04T20:42:39.090Z,5.17
2019-02-04T20:45:08.217Z,5.00
2019-02-04T20:47:35.921Z,4.50
2019-02-04T20:50:04.037Z,5.10
2019-02-04T20:52:31.566Z,4.93
2019-02-04T20:54:58.809Z,4.93
2019-02-04T20:57:26.251Z,4.40
2019-02-04T20:59:53.770Z,4.93
2019-02-04T21:02:21.302Z,5.00
2019-02-04T21:04:48.940Z,4.87
2019-02-04T21:07:16.259Z,5.20
2019-02-04T21:09:43.505Z,4.70
2019-02-04T21:12:10.849Z,4.87
2019-02-04T21:14:38.098Z,5.13
2019-02-04T21:17:05.371Z,5.10
2019-02-04T21:19:32.902Z,5.07
2019-02-04T21:22:00.147Z,4.30
2019-02-04T21:24:27.414Z,4.73
2019-02-04T21:26:54.729Z,4.53
2019-02-04T21:29:21.994Z,4.77
2019-02-04T21:31:49.271Z,5.27
2019-02-04T21:34:16.514Z,4.73
2019-02-04T21:36:43.790Z,4.90
2019-02-04T21:39:11.109Z,4.57
2019-02-04T21:41:38.657Z,5.23
2019-02-04T21:44:06.111Z,5.90
2019-02-04T21:46:33.457Z,5.27
2019-02-04T21:49:01.123Z,5.00
2019-02-04T21:51:28.404Z,4.50
2019-02-04T21:53:55.966Z,4.83
2019-02-04T21:56:23.465Z,4.37
2019-02-04T21:58:51.120Z,4.27
2019-02-04T22:01:18.441Z,4.83
2019-02-04T22:03:45.708Z,4.30
2019-02-04T22:06:12.959Z,4.63
2019-02-04T22:08:40.305Z,4.80
2019-02-04T22:11:07.588Z,5.20
2019-02-04T22:13:34.938Z,5.20
2019-02-04T22:16:02.188Z,5.00
2019-02-04T22:18:29.548Z,5.60
2019-02-04T22:20:56.895Z,5.40
2019-02-04T22:23:24.184Z,5.00
2019-02-04T22:25:51.702Z,6.10
2019-02-04T22:28:18.945Z,4.90
2019-02-04T22:30:46.590Z,5.10
2019-02-04T22:33:13.907Z,5.20
2019-02-04T22:35:41.367Z,5.40
2019-02-04T22:38:08.611Z,6.13
2019-02-04T22:40:36.114Z,6.00
2019-02-04T22:43:03.458Z,5.60
2019-02-04T22:45:30.705Z,6.03
2019-02-04T22:47:57.974Z,5.73
2019-02-04T22:50:29.034Z,6.40
2019-02-04T22:52:56.695Z,6.57
2019-02-04T22:55:31.515Z,6.63
2019-02-04T22:57:53.112Z,6.27
2019-02-04T23:00:29.834Z,6.00
2019-02-04T23:02:57.178Z,5.53
2019-02-04T23:05:24.563Z,4.87
2019-02-04T23:07:52.280Z,5.20
2019-02-04T23:10:19.628Z,5.23
2019-02-04T23:12:46.969Z,5.73
2019-02-04T23:15:14.282Z,5.20
2019-02-04T23:17:41.552Z,6.03
2019-02-04T23:20:09.262Z,5.80
2019-02-04T23:22:36.599Z,5.47
2019-02-04T23:25:04.985Z,5.37
2019-02-04T23:27:32.246Z,6.40
2019-02-04T23:29:59.511Z,5.97
2019-02-04T23:32:26.787Z,5.37
2019-02-04T23:34:54.061Z,5.07
2019-02-04T23:37:21.549Z,5.20
2019-02-04T23:39:48.838Z,5.20
2019-02-04T23:42:16.530Z,5.70
2019-02-04T23:44:43.838Z,5.57
2019-02-04T23:47:11.114Z,6.00
2019-02-04T23:49:38.355Z,5.57
2019-02-04T23:52:05.698Z,6.73
2019-02-04T23:54:33.045Z,5.67
2019-02-04T23:57:00.296Z,5.27
2019-02-04T23:59:27.838Z,5.70
